CCGS Henry Larsen — CGHL — position and weather

sailwx.info

Track history (hours):
 
Tides and Currents Weather Stations Pressure Air Temp Water Temp Dewpoint Dewpoint Depression Visibility Wind Speed Wind Dir Waves Ship Positions

CCGS Henry Larsen (Canada)

Medium Gulf/River Icebreaker

Last reported at 2017-Nov-20 07:00 UTC. Time now 2017-Nov-20 07:58 UTC.
Position N 63°42' W 068°30'.

Length 100.03 m; beam 19.82 m; draft 7.2 m.

Type: SAR. MMSI: 316013000.

Wind from 070 at 17 knots

Barometer 1016.9 mb
Air temperature -4.4 ° C
Dewpoint -10.3 ° C

Date/timePositionNaut miles runAvg speedWind from/ knotsBaromVisibWave heightAir tempDewpointWater temp
2017-Nov-20 07:00N 63°42' W 068°30'0 0.0 070 / 171016.9 -4.4-10.3
2017-Nov-20 06:00N 63°42' W 068°30'0 0.0 040 / 141017.8 -4.5-10.0
2017-Nov-20 05:00N 63°42' W 068°30'0 0.0 060 / 201017.9 -4.4-10.0
2017-Nov-20 04:00N 63°42' W 068°30'0 0.0 070 / 151018.9 -4.7-10.0
2017-Nov-20 02:00N 63°42' W 068°30'0 0.0 060 / 151020.0 -5.0-10.4
2017-Nov-20 01:00N 63°42' W 068°30'0 0.0 070 / 151020.2 -5.1-10.4
2017-Nov-20 00:00N 63°42' W 068°30'0 0.0 070 / 151020.7 -5.3-10.7
2017-Nov-19 23:00N 63°42' W 068°30'0 0.0 070 / 201021.2 -5.5-11.1
2017-Nov-19 22:00N 63°42' W 068°30'0 0.0 070 / 171021.5 -5.7-10.8
2017-Nov-19 21:00N 63°42' W 068°30'0 0.0 070 / 201021.9 -5.9-11.8
2017-Nov-19 20:00N 63°42' W 068°30'0 0.0 060 / 181022.6 -6.1-11.9
2017-Nov-19 19:00N 63°42' W 068°30'0 0.0 060 / 161023.2 -6.4-12.0
2017-Nov-19 18:00N 63°42' W 068°30'0 0.0 060 / 201023.6 -6.4-12.0
2017-Nov-19 17:00N 63°42' W 068°30'0 0.0 060 / 111024.4 -7.0-12.1
2017-Nov-19 16:00N 63°42' W 068°30'0 0.0 060 / 181024.1 -7.5-13.0
2017-Nov-19 15:00N 63°42' W 068°30'0 0.0 060 / 171024.4 -8.1-13.8
2017-Nov-19 14:00N 63°42' W 068°30'0 0.0 060 / 191024.3 -8.0-13.9
2017-Nov-19 13:00N 63°42' W 068°30'0 0.0 070 / 191024.0 -8.2-14.5
2017-Nov-19 12:00N 63°42' W 068°30'0 0.0 060 / 191024.3 -8.2-14.6
2017-Nov-19 09:00N 63°42' W 068°30'0 0.0 040 / 141025.5 -9.1-14.4
2017-Nov-19 07:00N 63°42' W 068°30'0 0.0 040 / 151026.6 -9.9-15.6
2017-Nov-19 06:00N 63°42' W 068°30'0 0.0 040 / 161027.4 -10.1-15.4
2017-Nov-19 05:00N 63°42' W 068°30'0 0.0 040 / 191027.4 -9.7-15.1
2017-Nov-19 04:00N 63°42' W 068°30'0 0.0 040 / 191027.5 -9.3-14.2
2017-Nov-19 03:00N 63°42' W 068°30'0 0.0 030 / 231027.3 -9.2-14.4
2017-Nov-19 02:00N 63°42' W 068°30'0 0.0 030 / 181028.1 -10.7-15.6
2017-Nov-19 01:00N 63°42' W 068°30'0 0.0 030 / 171028.7 -11.2-16.8
2017-Nov-19 00:00N 63°42' W 068°30'0 0.0 030 / 171028.9 -11.0-16.3
2017-Nov-18 23:00N 63°42' W 068°30'0 0.0 030 / 181029.3 -10.8-16.6
2017-Nov-18 22:00N 63°42' W 068°30'0 0.0 030 / 161029.6 -10.6-16.5
2017-Nov-18 21:00N 63°42' W 068°30'0 0.0 030 / 171029.7 -9.1-14.3
2017-Nov-18 19:00N 63°42' W 068°30'0 0.0 020 / 201030.9 -9.8-14.4
2017-Nov-18 18:00N 63°42' W 068°30'0 0.0 030 / 151031.3 -10.4-15.6
2017-Nov-18 17:00N 63°42' W 068°30'0 0.0 040 / 151031.2 -11.0-15.8
2017-Nov-18 16:00N 63°42' W 068°30'0 0.0 040 / 141031.7 -11.7-15.9
2017-Nov-18 15:00N 63°42' W 068°30'0 0.0 040 / 101031.8 -12.3-16.5
2017-Nov-18 14:00N 63°42' W 068°30'0 0.0 030 / 151031.8 -12.6-17.2
2017-Nov-18 13:00N 63°42' W 068°30'0 0.0 030 / 131032.2 -13.1-17.7
2017-Nov-18 12:00N 63°42' W 068°30'0 0.0 030 / 141032.0 -12.8-17.5
2017-Nov-18 11:00N 63°42' W 068°30'0 0.0 040 / 21032.8 -12.6-16.7
2017-Nov-18 10:00N 63°42' W 068°30'0 0.0 030 / 21033.4 -12.5-16.4
2017-Nov-18 09:00N 63°42' W 068°30'0 0.0 040 / 11033.7 -12.8-17.2
2017-Nov-18 08:00N 63°42' W 068°30'0 0.0 350 / 51033.9 -13.3-17.8
2017-Nov-18 07:00N 63°42' W 068°30'0 0.0 100 / 11034.0 -13.3-18.1
2017-Nov-18 06:00N 63°42' W 068°30'0 0.0 030 / 11034.0 -13.8-19.7
2017-Nov-18 05:00N 63°42' W 068°30'0 0.0 030 / 11033.5 -14.0-19.3
2017-Nov-18 04:00N 63°42' W 068°30'0 0.0 030 / 31033.2 -14.0-19.5
2017-Nov-18 03:00N 63°42' W 068°30'0 0.0 350 / 71033.0 -14.3-19.8
2017-Nov-18 02:00N 63°42' W 068°30'0 0.0 350 / 71032.8 -14.7-20.6
2017-Nov-18 01:00N 63°42' W 068°30'0 0.0 010 / 41032.5 -14.5-20.9
2017-Nov-18 00:00N 63°42' W 068°30'0 0.0 360 / 41032.5 -14.2-23.1
2017-Nov-17 23:00N 63°42' W 068°30'0 0.0 290 / 31032.2 -14.3-22.2
2017-Nov-17 22:00N 63°42' W 068°30'0 0.0 340 / 51031.8 -14.0-22.3
2017-Nov-17 21:00N 63°42' W 068°30'0 0.0 360 / 51031.8 -13.3-23.0
2017-Nov-17 20:00N 63°42' W 068°30'0 0.0 360 / 41031.7 -13.3-22.5
2017-Nov-17 19:00N 63°42' W 068°30'0 0.0 360 / 51031.6 -12.8-23.3
2017-Nov-17 18:00N 63°42' W 068°30'0 0.0 320 / 61031.5 -12.6-22.4
2017-Nov-17 17:00N 63°42' W 068°30'0 0.0 290 / 61031.3 -12.6-22.2
2017-Nov-17 16:00N 63°42' W 068°30'0 0.0 280 / 71031.0 -12.9-22.6
2017-Nov-17 15:00N 63°42' W 068°30'0 0.0 280 / 91030.7 -13.7-22.1
2017-Nov-17 14:00N 63°42' W 068°30'7 3.3 290 / 81030.0 -14.6-22.6
2017-Nov-17 12:00N 63°36' W 068°24'0 0.0 260 / 131028.7 -14.1-18.7
2017-Nov-17 11:00N 63°36' W 068°24'3 2.7 290 / 81028.3 -13.2-16.8
2017-Nov-17 10:00N 63°36' W 068°30'0 0.0 270 / 171027.6 -15.1-16.9
2017-Nov-17 09:00N 63°36' W 068°30'7 6.6 240 / 181027.5 -16.0-17.6
2017-Nov-17 08:00N 63°30' W 068°24'3 2.7 250 / 191027.2 -15.2-17.2
2017-Nov-17 07:00N 63°30' W 068°18'7 6.6 250 / 221026.5 -14.7-16.2
2017-Nov-17 06:00N 63°24' W 068°12'7 6.6 270 / 141026.5 -13.3-14.9
2017-Nov-17 05:00N 63°30' W 068°18'8 8.0 280 / 131026.3 -13.4-15.4
2017-Nov-17 04:00N 63°36' W 068°30'0 0.0 290 / 161026.1 -16.2-18.1
2017-Nov-17 03:00N 63°36' W 068°30'7 6.6 290 / 131025.4 -15.4-18.1
2017-Nov-17 02:00N 63°42' W 068°36'8 4.0 270 / 171024.6 -17.5-19.9
2017-Nov-17 00:00N 63°36' W 068°24'7 6.6 270 / 251022.7 -15.6-18.4
2017-Nov-16 23:00N 63°30' W 068°18'7 6.6 260 / 251021.6 -14.6-17.3
2017-Nov-16 22:00N 63°24' W 068°12'7 6.6 270 / 191021.3 -13.0-15.9
2017-Nov-16 21:00N 63°30' W 068°18'3 2.7 280 / 201020.8 -13.6-17.2
2017-Nov-16 20:00N 63°30' W 068°24'7 6.6 280 / 211020.5 -15.0-18.1
2017-Nov-16 19:00N 63°36' W 068°30'7 6.6 280 / 161020.3 -14.6-17.7
2017-Nov-16 18:00N 63°42' W 068°36'0 0.0 280 / 151019.9 -14.8-18.6
2017-Nov-16 17:00N 63°42' W 068°36'0 0.0 280 / 201019.1 -15.1-20.7
2017-Nov-16 16:00N 63°42' W 068°36'0 0.0 280 / 181018.8 -16.0-17.9
2017-Nov-16 15:00N 63°42' W 068°36'7 6.6 260 / 251017.2 -17.9-19.9
2017-Nov-16 14:00N 63°36' W 068°30'3 2.7 270 / 261016.0 -16.8-18.4
2017-Nov-16 13:00N 63°36' W 068°24'7 6.6 290 / 221015.3 -16.7-18.3
2017-Nov-16 12:00N 63°42' W 068°30'0 0.0 270 / 221013.7 -19.0-20.9
2017-Nov-16 11:00N 63°42' W 068°30'0 0.0 270 / 221012.8 -17.5-19.1
2017-Nov-16 10:00N 63°42' W 068°30'0 0.0 280 / 221012.0 -15.5-17.4
2017-Nov-16 09:00N 63°42' W 068°30'0 0.0 280 / 131011.8 -11.9-14.7
2017-Nov-16 08:00N 63°42' W 068°30'0 0.0 280 / 71011.7 -11.9-13.6
2017-Nov-16 07:00N 63°42' W 068°30'0 0.0 280 / 41011.5 -11.4-12.9
2017-Nov-16 05:00N 63°42' W 068°30'0 0.0 240 / 41010.8 -12.1-13.8
2017-Nov-16 04:00N 63°42' W 068°30'0 0.0 270 / 91010.4 -12.7-14.7
2017-Nov-16 03:00N 63°42' W 068°30'0 0.0 270 / 121009.8 -12.9-14.9
2017-Nov-16 02:00N 63°42' W 068°30'0 0.0 260 / 101009.6 -12.8-14.6
2017-Nov-16 01:00N 63°42' W 068°30'0 0.0 270 / 101009.1 -12.5-14.3
2017-Nov-16 00:00N 63°42' W 068°30'0 0.0 260 / 81008.5 -12.6-14.5
2017-Nov-15 23:00N 63°42' W 068°30'0 0.0 250 / 111008.0 -12.8-14.5
2017-Nov-15 22:00N 63°42' W 068°30'0 0.0 270 / 71007.6 -13.0-14.5
2017-Nov-15 21:00N 63°42' W 068°30'0 0.0 270 / 101007.2 -13.1-14.6
2017-Nov-15 20:00N 63°42' W 068°30'0 0.0 270 / 111006.9 -13.3-14.8
2017-Nov-15 19:00N 63°42' W 068°30'0 0.0 260 / 101006.6 -13.7-15.1
2017-Nov-15 17:00N 63°42' W 068°30'7 6.6 250 / 111005.6 -13.3-15.4
2017-Nov-15 16:00N 63°36' W 068°24'1313.1 240 / 281004.6 -12.3-14.4
2017-Nov-15 15:00N 63°24' W 068°12'1414.5 260 / 261004.2 -11.4-13.6
2017-Nov-15 14:00N 63°12' W 067°54'8 8.1 260 / 231003.3 -10.3-12.3
2017-Nov-15 13:00N 63°06' W 067°42'8 8.1 260 / 201002.2 -9.3-10.5
2017-Nov-15 12:00N 63°06' W 067°24'8 8.1 330 / 31001.3 -7.5-10.1
2017-Nov-15 11:00N 63°00' W 067°12'8 8.1 320 / 91000.0 -7.8-8.9
2017-Nov-15 10:00N 62°54' W 067°00'7 6.6 290 / 11999.2 -8.3-8.9
2017-Nov-15 09:00N 62°48' W 066°54'5 5.5 300 / 9998.6 -7.5-8.5
2017-Nov-15 08:00N 62°48' W 066°42'8 8.1 110 / 9996.9 -6.7-7.7
2017-Nov-15 07:00N 62°42' W 066°30'8 8.1 130 / 9996.8 -6.9-7.6
2017-Nov-15 06:00N 62°36' W 066°18'8 8.2 120 / 9997.5 -6.7-7.0
2017-Nov-15 05:00N 62°30' W 066°06'8 8.2 130 / 10998.2 -6.3-6.5
2017-Nov-15 04:00N 62°24' W 065°54'12 6.2 040 / 22998.6 -5.6-5.8
2017-Nov-15 02:00N 62°12' W 065°48'7 6.6 150 / 71002.4 -6.1-6.6
2017-Nov-15 01:00N 62°06' W 065°42'1212.3 150 / 71004.4 -6.6-7.6
2017-Nov-15 00:00N 61°54' W 065°36'12 6.0 150 / 51005.7 -6.4-8.5
2017-Nov-14 22:00N 61°42' W 065°36'6 6.0 190 / 91008.6 -5.2-10.9
2017-Nov-14 21:00N 61°36' W 065°36'1212.3 180 / 161010.0 -6.0-11.8
2017-Nov-14 20:00N 61°24' W 065°30'1212.3 190 / 161011.3 -5.9-11.2
2017-Nov-14 19:00N 61°12' W 065°24'1212.0 190 / 201012.5 -5.9-11.4
2017-Nov-14 18:00N 61°00' W 065°24'7 6.7 190 / 231013.4 -5.8-10.5
2017-Nov-14 17:00N 60°54' W 065°18'1212.4 200 / 261014.0 -5.6-10.3
2017-Nov-14 16:00N 60°42' W 065°12'7 6.7 200 / 261015.0 -5.4-12.0
2017-Nov-14 15:00N 60°36' W 065°06'1313.4 200 / 261015.7 -5.5-12.8
2017-Nov-14 14:00N 60°24' W 064°54'3 3.0 210 / 231015.7 -5.4-11.6
2017-Nov-14 13:00N 60°24' W 064°48'0 0.0 220 / 271015.5 -5.3-9.3
2017-Nov-14 12:00N 60°24' W 064°48'0 0.0 220 / 271014.9 -6.1-7.1
2017-Nov-14 10:00N 60°24' W 064°48'0 0.0 240 / 171014.6 -5.4-8.1
2017-Nov-14 09:00N 60°24' W 064°48'0 0.0 230 / 181014.4 -5.2-12.1
2017-Nov-14 08:00N 60°24' W 064°48'0 0.0 230 / 201014.1 -5.2-11.2
2017-Nov-14 07:00N 60°24' W 064°48'0 0.0 220 / 201013.8 -5.2-11.9
2017-Nov-14 06:00N 60°24' W 064°48'0 0.0 220 / 221013.7 -6.0-8.5
2017-Nov-14 05:00N 60°24' W 064°48'0 0.0 230 / 201013.8 -5.0-11.6
2017-Nov-14 04:00N 60°24' W 064°48'0 0.0 250 / 151013.9 -5.5-8.8
2017-Nov-14 03:00N 60°24' W 064°48'0 0.0 230 / 211013.6 -5.0-8.7
2017-Nov-14 02:00N 60°24' W 064°48'0 0.0 290 / 81013.8 -6.0-8.1
2017-Nov-14 01:00N 60°24' W 064°48'0 0.0 260 / 181013.4 -4.8-12.4
2017-Nov-14 00:00N 60°24' W 064°48'0 0.0 270 / 211012.8 -5.2-12.3
2017-Nov-13 22:00N 60°24' W 064°48'0 0.0 270 / 291010.9 -5.3-14.0
2017-Nov-13 21:00N 60°24' W 064°48'0 0.0 260 / 251010.3 -5.4-13.4
2017-Nov-13 20:00N 60°24' W 064°48'0 0.0 260 / 261010.0 -5.5-12.8
2017-Nov-13 19:00N 60°24' W 064°48'0 0.0 260 / 271009.5 -5.5-12.4
2017-Nov-13 18:00N 60°24' W 064°48'0 0.0 260 / 231009.1 -4.8-11.2
2017-Nov-13 17:00N 60°24' W 064°48'0 0.0 260 / 241008.6 -4.7-10.2
2017-Nov-13 16:00N 60°24' W 064°48'0 0.0 240 / 261008.3 -4.4-12.2
2017-Nov-13 15:00N 60°24' W 064°48'0 0.0 240 / 261007.9 -4.3-11.8
2017-Nov-13 14:00N 60°24' W 064°48'0 0.0 260 / 231007.7 -4.5-10.2
2017-Nov-13 13:00N 60°24' W 064°48'0 0.0 260 / 211007.2 -4.5-9.4
2017-Nov-13 12:00N 60°24' W 064°48'0 0.0 250 / 181006.8 -3.8-9.5
2017-Nov-13 11:00N 60°24' W 064°48'0 0.0 260 / 241005.9 -3.8-8.7
2017-Nov-13 10:00N 60°24' W 064°48'0 0.0 220 / 261005.3 -3.1-8.1
2017-Nov-13 09:00N 60°24' W 064°48'0 0.0 210 / 231005.2 -3.3-8.3
2017-Nov-13 08:00N 60°24' W 064°48'0 0.0 220 / 211005.1 -3.6-7.6
2017-Nov-13 07:00N 60°24' W 064°48'0 0.0 230 / 191004.8 -4.2-8.8
2017-Nov-13 06:00N 60°24' W 064°48'0 0.0 230 / 231004.5 -3.9-9.6
2017-Nov-13 05:00N 60°24' W 064°48'0 0.0 230 / 241004.0 -3.5-8.6
2017-Nov-13 02:00N 60°24' W 064°48'0 0.0 220 / 261002.9 -2.9-7.6
2017-Nov-13 01:00N 60°24' W 064°48'0 0.0 230 / 251002.7 -2.9-7.6
2017-Nov-13 00:00N 60°24' W 064°48'0 0.0 240 / 221002.1 -2.8-6.9
2017-Nov-12 23:00N 60°24' W 064°48'0 0.0 240 / 191001.9 -3.1-6.0
2017-Nov-12 22:00N 60°24' W 064°48'0 0.0 230 / 211001.2 -2.7-7.1
2017-Nov-12 21:00N 60°24' W 064°48'0 0.0 240 / 221001.1 -2.6-7.0
2017-Nov-12 20:00N 60°24' W 064°48'0 0.0 230 / 221001.0 -3.5-5.8
2017-Nov-12 19:00N 60°24' W 064°48'0 0.0 230 / 221000.8 -3.5-6.6
2017-Nov-12 18:00N 60°24' W 064°48'0 0.0 240 / 191000.9 -3.9-6.0
2017-Nov-12 17:00N 60°24' W 064°48'0 0.0 220 / 241000.7 -3.2-7.5
2017-Nov-12 15:00N 60°24' W 064°48'0 0.0 230 / 251000.9 -4.0-6.9
2017-Nov-12 14:00N 60°24' W 064°48'0 0.0 230 / 221001.1 -4.5-6.0
2017-Nov-12 13:00N 60°24' W 064°48'3 3.0 210 / 171001.3 -4.7-5.8
2017-Nov-12 12:00N 60°24' W 064°54'8 8.4 230 / 141001.2 -4.2-7.3
2017-Nov-12 11:00N 60°30' W 065°06'6 6.0 210 / 171001.0 -4.2-9.4
2017-Nov-12 10:00N 60°36' W 065°06'1212.4 240 / 181000.7 -4.4-8.5
2017-Nov-12 09:00N 60°48' W 065°12'6 6.0 250 / 141000.5 -4.3-10.2
2017-Nov-12 08:00N 60°54' W 065°12'3 2.9 340 / 81001.0 -4.2-9.3
2017-Nov-12 07:00N 60°54' W 065°18'1212.3 310 / 101001.0 -4.4-8.7
2017-Nov-12 06:00N 61°06' W 065°24'6 6.0 310 / 91000.8 -4.3-8.4
2017-Nov-12 05:00N 61°12' W 065°24'1212.3 290 / 151001.4 -4.2-10.1
2017-Nov-12 04:00N 61°24' W 065°30'7 6.7 310 / 111002.2 -3.9-9.5
2017-Nov-12 03:00N 61°30' W 065°36'1212.0 340 / 121003.3 -5.1-8.8
2017-Nov-12 02:00N 61°42' W 065°36'1212.0 350 / 151004.3 -5.4-7.3
2017-Nov-12 01:00N 61°54' W 065°36'1818.2 340 / 161005.4 -5.0-7.9
2017-Nov-12 00:00N 62°12' W 065°42'1313.2 320 / 211006.9 -5.3-9.5
2017-Nov-11 23:00N 62°24' W 065°54'1616.3 320 / 191008.3 -5.8-10.1
2017-Nov-11 22:00N 62°36' W 066°18'1616.3 310 / 211009.6 -6.6-12.2
2017-Nov-11 21:00N 62°48' W 066°42'1212.5 320 / 201011.1 -6.8-12.2
2017-Nov-11 20:00N 62°54' W 067°06'1616.2 320 / 181012.3 -7.0-12.6
2017-Nov-11 19:00N 63°06' W 067°30'1212.4 310 / 211012.9 -7.0-11.7
2017-Nov-11 18:00N 63°12' W 067°54'1414.5 350 / 121014.3 -6.9-11.7
2017-Nov-11 17:00N 63°24' W 068°12'2019.7 020 / 171014.8 -7.6-12.8
2017-Nov-11 16:00N 63°42' W 068°30'0 0.0 030 / 261015.7 -9.1-14.7
2017-Nov-11 15:00N 63°42' W 068°30'0 0.0 020 / 171016.5 -8.6-15.1
2017-Nov-11 14:00N 63°42' W 068°30'0 0.0 010 / 101017.3 -7.8-13.5
2017-Nov-11 13:00N 63°42' W 068°30'0 0.0 030 / 81017.9 -7.4-12.2
2017-Nov-11 12:00N 63°42' W 068°30'0 0.0 020 / 81018.3 -7.4-11.8
2017-Nov-11 11:00N 63°42' W 068°30'0 0.0 020 / 101018.1 -7.4-11.4
2017-Nov-11 10:00N 63°42' W 068°30'0 0.0 040 / 61018.3 -6.2-9.8
2017-Nov-11 08:00N 63°42' W 068°30'0 0.0 150 / 51018.4 -5.8-10.8
2017-Nov-11 07:00N 63°42' W 068°30'0 0.0 160 / 61018.0 -5.9-10.7
2017-Nov-11 06:00N 63°42' W 068°30'0 0.0 160 / 101017.6 -6.0-10.7
2017-Nov-11 05:00N 63°42' W 068°30'0 0.0 120 / 121017.5 -5.2-12.0
2017-Nov-11 04:00N 63°42' W 068°30'0 0.0 130 / 141017.6 -5.2-11.6
2017-Nov-11 03:00N 63°42' W 068°30'0 0.0 130 / 131017.9 -5.2-12.9
2017-Nov-11 02:00N 63°42' W 068°30'0 0.0 120 / 111018.3 -5.1-13.1
2017-Nov-11 01:00N 63°42' W 068°30'0 0.0 130 / 131018.5 -5.2-13.8
2017-Nov-11 00:00N 63°42' W 068°30'0 0.0 130 / 141018.7 -5.5-13.0
2017-Nov-10 23:00N 63°42' W 068°30'0 0.0 150 / 101018.6 -5.4-12.2
2017-Nov-10 22:00N 63°42' W 068°30'0 0.0 170 / 91018.1 -5.5-12.5
2017-Nov-10 20:00N 63°42' W 068°30'0 0.0 160 / 131016.9 -5.4-12.9
2017-Nov-10 19:00N 63°42' W 068°30'6 6.0 150 / 141015.8 -4.5-12.4
2017-Nov-10 18:00N 63°36' W 068°30'0 0.0 110 / 131016.0 -4.9-12.8
2017-Nov-10 17:00N 63°36' W 068°30'6 6.0 140 / 151014.6 -4.7-12.6
2017-Nov-10 16:00N 63°42' W 068°30'0 0.0 130 / 91015.0 -5.1-12.7
2017-Nov-10 15:00N 63°42' W 068°30'0 0.0 160 / 121014.6 -5.2-12.7
2017-Nov-10 14:00N 63°42' W 068°30'0 0.0 150 / 121014.4 -5.1-12.9
2017-Nov-10 13:00N 63°42' W 068°30'0 0.0 140 / 121014.2 -5.2-12.8
2017-Nov-10 12:00N 63°42' W 068°30'0 0.0 130 / 91014.0 -5.6-11.8
2017-Nov-10 11:00N 63°42' W 068°30'0 0.0 130 / 131013.7 -5.4-12.1
2017-Nov-10 10:00N 63°42' W 068°30'0 0.0 110 / 141013.2 -5.6-11.2
2017-Nov-10 09:00N 63°42' W 068°30'0 0.0 140 / 81012.9 -6.0-11.1
2017-Nov-10 08:00N 63°42' W 068°30'0 0.0 180 / 141012.1 -5.9-10.4
2017-Nov-10 07:00N 63°42' W 068°30'   170 / 111011.1 -5.5-10.4
Track history (hours):
 
Tides and Currents Weather Stations Pressure Air Temp Water Temp Dewpoint Dewpoint Depression Visibility Wind Speed Wind Dir Waves Ship Positions

CCGS Henry Larsen (Canada)

Medium Gulf/River Icebreaker

Last reported at 2017-Nov-20 07:00 UTC. Time now 2017-Nov-20 07:58 UTC.
Position N 63°42' W 068°30'.

Length 100.03 m; beam 19.82 m; draft 7.2 m.

Type: SAR. MMSI: 316013000.

Wind from 070 at 17 knots

Barometer 1016.9 mb
Air temperature -4.4 ° C
Dewpoint -10.3 ° C

Date/timePositionNaut miles runAvg speedWind from/ knotsBaromVisibWave heightAir tempDewpointWater temp
2017-Nov-20 07:00N 63°42' W 068°30'0 0.0 070 / 171016.9 -4.4-10.3
2017-Nov-20 06:00N 63°42' W 068°30'0 0.0 040 / 141017.8 -4.5-10.0
2017-Nov-20 05:00N 63°42' W 068°30'0 0.0 060 / 201017.9 -4.4-10.0
2017-Nov-20 04:00N 63°42' W 068°30'0 0.0 070 / 151018.9 -4.7-10.0
2017-Nov-20 02:00N 63°42' W 068°30'0 0.0 060 / 151020.0 -5.0-10.4
2017-Nov-20 01:00N 63°42' W 068°30'0 0.0 070 / 151020.2 -5.1-10.4
2017-Nov-20 00:00N 63°42' W 068°30'0 0.0 070 / 151020.7 -5.3-10.7
2017-Nov-19 23:00N 63°42' W 068°30'0 0.0 070 / 201021.2 -5.5-11.1
2017-Nov-19 22:00N 63°42' W 068°30'0 0.0 070 / 171021.5 -5.7-10.8
2017-Nov-19 21:00N 63°42' W 068°30'0 0.0 070 / 201021.9 -5.9-11.8
2017-Nov-19 20:00N 63°42' W 068°30'0 0.0 060 / 181022.6 -6.1-11.9
2017-Nov-19 19:00N 63°42' W 068°30'0 0.0 060 / 161023.2 -6.4-12.0
2017-Nov-19 18:00N 63°42' W 068°30'0 0.0 060 / 201023.6 -6.4-12.0
2017-Nov-19 17:00N 63°42' W 068°30'0 0.0 060 / 111024.4 -7.0-12.1
2017-Nov-19 16:00N 63°42' W 068°30'0 0.0 060 / 181024.1 -7.5-13.0
2017-Nov-19 15:00N 63°42' W 068°30'0 0.0 060 / 171024.4 -8.1-13.8
2017-Nov-19 14:00N 63°42' W 068°30'0 0.0 060 / 191024.3 -8.0-13.9
2017-Nov-19 13:00N 63°42' W 068°30'0 0.0 070 / 191024.0 -8.2-14.5
2017-Nov-19 12:00N 63°42' W 068°30'0 0.0 060 / 191024.3 -8.2-14.6
2017-Nov-19 09:00N 63°42' W 068°30'0 0.0 040 / 141025.5 -9.1-14.4
2017-Nov-19 07:00N 63°42' W 068°30'0 0.0 040 / 151026.6 -9.9-15.6
2017-Nov-19 06:00N 63°42' W 068°30'0 0.0 040 / 161027.4 -10.1-15.4
2017-Nov-19 05:00N 63°42' W 068°30'0 0.0 040 / 191027.4 -9.7-15.1
2017-Nov-19 04:00N 63°42' W 068°30'0 0.0 040 / 191027.5 -9.3-14.2
2017-Nov-19 03:00N 63°42' W 068°30'0 0.0 030 / 231027.3 -9.2-14.4
2017-Nov-19 02:00N 63°42' W 068°30'0 0.0 030 / 181028.1 -10.7-15.6
2017-Nov-19 01:00N 63°42' W 068°30'0 0.0 030 / 171028.7 -11.2-16.8
2017-Nov-19 00:00N 63°42' W 068°30'0 0.0 030 / 171028.9 -11.0-16.3
2017-Nov-18 23:00N 63°42' W 068°30'0 0.0 030 / 181029.3 -10.8-16.6
2017-Nov-18 22:00N 63°42' W 068°30'0 0.0 030 / 161029.6 -10.6-16.5
2017-Nov-18 21:00N 63°42' W 068°30'0 0.0 030 / 171029.7 -9.1-14.3
2017-Nov-18 19:00N 63°42' W 068°30'0 0.0 020 / 201030.9 -9.8-14.4
2017-Nov-18 18:00N 63°42' W 068°30'0 0.0 030 / 151031.3 -10.4-15.6
2017-Nov-18 17:00N 63°42' W 068°30'0 0.0 040 / 151031.2 -11.0-15.8
2017-Nov-18 16:00N 63°42' W 068°30'0 0.0 040 / 141031.7 -11.7-15.9
2017-Nov-18 15:00N 63°42' W 068°30'0 0.0 040 / 101031.8 -12.3-16.5
2017-Nov-18 14:00N 63°42' W 068°30'0 0.0 030 / 151031.8 -12.6-17.2
2017-Nov-18 13:00N 63°42' W 068°30'0 0.0 030 / 131032.2 -13.1-17.7
2017-Nov-18 12:00N 63°42' W 068°30'0 0.0 030 / 141032.0 -12.8-17.5
2017-Nov-18 11:00N 63°42' W 068°30'0 0.0 040 / 21032.8 -12.6-16.7
2017-Nov-18 10:00N 63°42' W 068°30'0 0.0 030 / 21033.4 -12.5-16.4
2017-Nov-18 09:00N 63°42' W 068°30'0 0.0 040 / 11033.7 -12.8-17.2
2017-Nov-18 08:00N 63°42' W 068°30'0 0.0 350 / 51033.9 -13.3-17.8
2017-Nov-18 07:00N 63°42' W 068°30'0 0.0 100 / 11034.0 -13.3-18.1
2017-Nov-18 06:00N 63°42' W 068°30'0 0.0 030 / 11034.0 -13.8-19.7
2017-Nov-18 05:00N 63°42' W 068°30'0 0.0 030 / 11033.5 -14.0-19.3
2017-Nov-18 04:00N 63°42' W 068°30'0 0.0 030 / 31033.2 -14.0-19.5
2017-Nov-18 03:00N 63°42' W 068°30'0 0.0 350 / 71033.0 -14.3-19.8
2017-Nov-18 02:00N 63°42' W 068°30'0 0.0 350 / 71032.8 -14.7-20.6
2017-Nov-18 01:00N 63°42' W 068°30'0 0.0 010 / 41032.5 -14.5-20.9
2017-Nov-18 00:00N 63°42' W 068°30'0 0.0 360 / 41032.5 -14.2-23.1
2017-Nov-17 23:00N 63°42' W 068°30'0 0.0 290 / 31032.2 -14.3-22.2
2017-Nov-17 22:00N 63°42' W 068°30'0 0.0 340 / 51031.8 -14.0-22.3
2017-Nov-17 21:00N 63°42' W 068°30'0 0.0 360 / 51031.8 -13.3-23.0
2017-Nov-17 20:00N 63°42' W 068°30'0 0.0 360 / 41031.7 -13.3-22.5
2017-Nov-17 19:00N 63°42' W 068°30'0 0.0 360 / 51031.6 -12.8-23.3
2017-Nov-17 18:00N 63°42' W 068°30'0 0.0 320 / 61031.5 -12.6-22.4
2017-Nov-17 17:00N 63°42' W 068°30'0 0.0 290 / 61031.3 -12.6-22.2
2017-Nov-17 16:00N 63°42' W 068°30'0 0.0 280 / 71031.0 -12.9-22.6
2017-Nov-17 15:00N 63°42' W 068°30'0 0.0 280 / 91030.7 -13.7-22.1
2017-Nov-17 14:00N 63°42' W 068°30'7 3.3 290 / 81030.0 -14.6-22.6
2017-Nov-17 12:00N 63°36' W 068°24'0 0.0 260 / 131028.7 -14.1-18.7
2017-Nov-17 11:00N 63°36' W 068°24'3 2.7 290 / 81028.3 -13.2-16.8
2017-Nov-17 10:00N 63°36' W 068°30'0 0.0 270 / 171027.6 -15.1-16.9
2017-Nov-17 09:00N 63°36' W 068°30'7 6.6 240 / 181027.5 -16.0-17.6
2017-Nov-17 08:00N 63°30' W 068°24'3 2.7 250 / 191027.2 -15.2-17.2
2017-Nov-17 07:00N 63°30' W 068°18'7 6.6 250 / 221026.5 -14.7-16.2
2017-Nov-17 06:00N 63°24' W 068°12'7 6.6 270 / 141026.5 -13.3-14.9
2017-Nov-17 05:00N 63°30' W 068°18'8 8.0 280 / 131026.3 -13.4-15.4
2017-Nov-17 04:00N 63°36' W 068°30'0 0.0 290 / 161026.1 -16.2-18.1
2017-Nov-17 03:00N 63°36' W 068°30'7 6.6 290 / 131025.4 -15.4-18.1
2017-Nov-17 02:00N 63°42' W 068°36'8 4.0 270 / 171024.6 -17.5-19.9
2017-Nov-17 00:00N 63°36' W 068°24'7 6.6 270 / 251022.7 -15.6-18.4
2017-Nov-16 23:00N 63°30' W 068°18'7 6.6 260 / 251021.6 -14.6-17.3
2017-Nov-16 22:00N 63°24' W 068°12'7 6.6 270 / 191021.3 -13.0-15.9
2017-Nov-16 21:00N 63°30' W 068°18'3 2.7 280 / 201020.8 -13.6-17.2
2017-Nov-16 20:00N 63°30' W 068°24'7 6.6 280 / 211020.5 -15.0-18.1
2017-Nov-16 19:00N 63°36' W 068°30'7 6.6 280 / 161020.3 -14.6-17.7
2017-Nov-16 18:00N 63°42' W 068°36'0 0.0 280 / 151019.9 -14.8-18.6
2017-Nov-16 17:00N 63°42' W 068°36'0 0.0 280 / 201019.1 -15.1-20.7
2017-Nov-16 16:00N 63°42' W 068°36'0 0.0 280 / 181018.8 -16.0-17.9
2017-Nov-16 15:00N 63°42' W 068°36'7 6.6 260 / 251017.2 -17.9-19.9
2017-Nov-16 14:00N 63°36' W 068°30'3 2.7 270 / 261016.0 -16.8-18.4
2017-Nov-16 13:00N 63°36' W 068°24'7 6.6 290 / 221015.3 -16.7-18.3
2017-Nov-16 12:00N 63°42' W 068°30'0 0.0 270 / 221013.7 -19.0-20.9
2017-Nov-16 11:00N 63°42' W 068°30'0 0.0 270 / 221012.8 -17.5-19.1
2017-Nov-16 10:00N 63°42' W 068°30'0 0.0 280 / 221012.0 -15.5-17.4
2017-Nov-16 09:00N 63°42' W 068°30'0 0.0 280 / 131011.8 -11.9-14.7
2017-Nov-16 08:00N 63°42' W 068°30'0 0.0 280 / 71011.7 -11.9-13.6
2017-Nov-16 07:00N 63°42' W 068°30'0 0.0 280 / 41011.5 -11.4-12.9
2017-Nov-16 05:00N 63°42' W 068°30'0 0.0 240 / 41010.8 -12.1-13.8
2017-Nov-16 04:00N 63°42' W 068°30'0 0.0 270 / 91010.4 -12.7-14.7
2017-Nov-16 03:00N 63°42' W 068°30'0 0.0 270 / 121009.8 -12.9-14.9
2017-Nov-16 02:00N 63°42' W 068°30'0 0.0 260 / 101009.6 -12.8-14.6
2017-Nov-16 01:00N 63°42' W 068°30'0 0.0 270 / 101009.1 -12.5-14.3
2017-Nov-16 00:00N 63°42' W 068°30'0 0.0 260 / 81008.5 -12.6-14.5
2017-Nov-15 23:00N 63°42' W 068°30'0 0.0 250 / 111008.0 -12.8-14.5
2017-Nov-15 22:00N 63°42' W 068°30'0 0.0 270 / 71007.6 -13.0-14.5
2017-Nov-15 21:00N 63°42' W 068°30'0 0.0 270 / 101007.2 -13.1-14.6
2017-Nov-15 20:00N 63°42' W 068°30'0 0.0 270 / 111006.9 -13.3-14.8
2017-Nov-15 19:00N 63°42' W 068°30'0 0.0 260 / 101006.6 -13.7-15.1
2017-Nov-15 17:00N 63°42' W 068°30'7 6.6 250 / 111005.6 -13.3-15.4
2017-Nov-15 16:00N 63°36' W 068°24'1313.1 240 / 281004.6 -12.3-14.4
2017-Nov-15 15:00N 63°24' W 068°12'1414.5 260 / 261004.2 -11.4-13.6
2017-Nov-15 14:00N 63°12' W 067°54'8 8.1 260 / 231003.3 -10.3-12.3
2017-Nov-15 13:00N 63°06' W 067°42'8 8.1 260 / 201002.2 -9.3-10.5
2017-Nov-15 12:00N 63°06' W 067°24'8 8.1 330 / 31001.3 -7.5-10.1
2017-Nov-15 11:00N 63°00' W 067°12'8 8.1 320 / 91000.0 -7.8-8.9
2017-Nov-15 10:00N 62°54' W 067°00'7 6.6 290 / 11999.2 -8.3-8.9
2017-Nov-15 09:00N 62°48' W 066°54'5 5.5 300 / 9998.6 -7.5-8.5
2017-Nov-15 08:00N 62°48' W 066°42'8 8.1 110 / 9996.9 -6.7-7.7
2017-Nov-15 07:00N 62°42' W 066°30'8 8.1 130 / 9996.8 -6.9-7.6
2017-Nov-15 06:00N 62°36' W 066°18'8 8.2 120 / 9997.5 -6.7-7.0
2017-Nov-15 05:00N 62°30' W 066°06'8 8.2 130 / 10998.2 -6.3-6.5
2017-Nov-15 04:00N 62°24' W 065°54'12 6.2 040 / 22998.6 -5.6-5.8
2017-Nov-15 02:00N 62°12' W 065°48'7 6.6 150 / 71002.4 -6.1-6.6
2017-Nov-15 01:00N 62°06' W 065°42'1212.3 150 / 71004.4 -6.6-7.6
2017-Nov-15 00:00N 61°54' W 065°36'12 6.0 150 / 51005.7 -6.4-8.5
2017-Nov-14 22:00N 61°42' W 065°36'6 6.0 190 / 91008.6 -5.2-10.9
2017-Nov-14 21:00N 61°36' W 065°36'1212.3 180 / 161010.0 -6.0-11.8
2017-Nov-14 20:00N 61°24' W 065°30'1212.3 190 / 161011.3 -5.9-11.2
2017-Nov-14 19:00N 61°12' W 065°24'1212.0 190 / 201012.5 -5.9-11.4
2017-Nov-14 18:00N 61°00' W 065°24'7 6.7 190 / 231013.4 -5.8-10.5
2017-Nov-14 17:00N 60°54' W 065°18'1212.4 200 / 261014.0 -5.6-10.3
2017-Nov-14 16:00N 60°42' W 065°12'7 6.7 200 / 261015.0 -5.4-12.0
2017-Nov-14 15:00N 60°36' W 065°06'1313.4 200 / 261015.7 -5.5-12.8
2017-Nov-14 14:00N 60°24' W 064°54'3 3.0 210 / 231015.7 -5.4-11.6
2017-Nov-14 13:00N 60°24' W 064°48'0 0.0 220 / 271015.5 -5.3-9.3
2017-Nov-14 12:00N 60°24' W 064°48'0 0.0 220 / 271014.9 -6.1-7.1
2017-Nov-14 10:00N 60°24' W 064°48'0 0.0 240 / 171014.6 -5.4-8.1
2017-Nov-14 09:00N 60°24' W 064°48'0 0.0 230 / 181014.4 -5.2-12.1
2017-Nov-14 08:00N 60°24' W 064°48'0 0.0 230 / 201014.1 -5.2-11.2
2017-Nov-14 07:00N 60°24' W 064°48'0 0.0 220 / 201013.8 -5.2-11.9
2017-Nov-14 06:00N 60°24' W 064°48'0 0.0 220 / 221013.7 -6.0-8.5
2017-Nov-14 05:00N 60°24' W 064°48'0 0.0 230 / 201013.8 -5.0-11.6
2017-Nov-14 04:00N 60°24' W 064°48'0 0.0 250 / 151013.9 -5.5-8.8
2017-Nov-14 03:00N 60°24' W 064°48'0 0.0 230 / 211013.6 -5.0-8.7
2017-Nov-14 02:00N 60°24' W 064°48'0 0.0 290 / 81013.8 -6.0-8.1
2017-Nov-14 01:00N 60°24' W 064°48'0 0.0 260 / 181013.4 -4.8-12.4
2017-Nov-14 00:00N 60°24' W 064°48'0 0.0 270 / 211012.8 -5.2-12.3
2017-Nov-13 22:00N 60°24' W 064°48'0 0.0 270 / 291010.9 -5.3-14.0
2017-Nov-13 21:00N 60°24' W 064°48'0 0.0 260 / 251010.3 -5.4-13.4
2017-Nov-13 20:00N 60°24' W 064°48'0 0.0 260 / 261010.0 -5.5-12.8
2017-Nov-13 19:00N 60°24' W 064°48'0 0.0 260 / 271009.5 -5.5-12.4
2017-Nov-13 18:00N 60°24' W 064°48'0 0.0 260 / 231009.1 -4.8-11.2
2017-Nov-13 17:00N 60°24' W 064°48'0 0.0 260 / 241008.6 -4.7-10.2
2017-Nov-13 16:00N 60°24' W 064°48'0 0.0 240 / 261008.3 -4.4-12.2
2017-Nov-13 15:00N 60°24' W 064°48'0 0.0 240 / 261007.9 -4.3-11.8
2017-Nov-13 14:00N 60°24' W 064°48'0 0.0 260 / 231007.7 -4.5-10.2
2017-Nov-13 13:00N 60°24' W 064°48'0 0.0 260 / 211007.2 -4.5-9.4
2017-Nov-13 12:00N 60°24' W 064°48'0 0.0 250 / 181006.8 -3.8-9.5
2017-Nov-13 11:00N 60°24' W 064°48'0 0.0 260 / 241005.9 -3.8-8.7
2017-Nov-13 10:00N 60°24' W 064°48'0 0.0 220 / 261005.3 -3.1-8.1
2017-Nov-13 09:00N 60°24' W 064°48'0 0.0 210 / 231005.2 -3.3-8.3
2017-Nov-13 08:00N 60°24' W 064°48'0 0.0 220 / 211005.1 -3.6-7.6
2017-Nov-13 07:00N 60°24' W 064°48'0 0.0 230 / 191004.8 -4.2-8.8
2017-Nov-13 06:00N 60°24' W 064°48'0 0.0 230 / 231004.5 -3.9-9.6
2017-Nov-13 05:00N 60°24' W 064°48'0 0.0 230 / 241004.0 -3.5-8.6
2017-Nov-13 02:00N 60°24' W 064°48'0 0.0 220 / 261002.9 -2.9-7.6
2017-Nov-13 01:00N 60°24' W 064°48'0 0.0 230 / 251002.7 -2.9-7.6
2017-Nov-13 00:00N 60°24' W 064°48'0 0.0 240 / 221002.1 -2.8-6.9
2017-Nov-12 23:00N 60°24' W 064°48'0 0.0 240 / 191001.9 -3.1-6.0
2017-Nov-12 22:00N 60°24' W 064°48'0 0.0 230 / 211001.2 -2.7-7.1
2017-Nov-12 21:00N 60°24' W 064°48'0 0.0 240 / 221001.1 -2.6-7.0
2017-Nov-12 20:00N 60°24' W 064°48'0 0.0 230 / 221001.0 -3.5-5.8
2017-Nov-12 19:00N 60°24' W 064°48'0 0.0 230 / 221000.8 -3.5-6.6
2017-Nov-12 18:00N 60°24' W 064°48'0 0.0 240 / 191000.9 -3.9-6.0
2017-Nov-12 17:00N 60°24' W 064°48'0 0.0 220 / 241000.7 -3.2-7.5
2017-Nov-12 15:00N 60°24' W 064°48'0 0.0 230 / 251000.9 -4.0-6.9
2017-Nov-12 14:00N 60°24' W 064°48'0 0.0 230 / 221001.1 -4.5-6.0
2017-Nov-12 13:00N 60°24' W 064°48'3 3.0 210 / 171001.3 -4.7-5.8
2017-Nov-12 12:00N 60°24' W 064°54'8 8.4 230 / 141001.2 -4.2-7.3
2017-Nov-12 11:00N 60°30' W 065°06'6 6.0 210 / 171001.0 -4.2-9.4
2017-Nov-12 10:00N 60°36' W 065°06'1212.4 240 / 181000.7 -4.4-8.5
2017-Nov-12 09:00N 60°48' W 065°12'6 6.0 250 / 141000.5 -4.3-10.2
2017-Nov-12 08:00N 60°54' W 065°12'3 2.9 340 / 81001.0 -4.2-9.3
2017-Nov-12 07:00N 60°54' W 065°18'1212.3 310 / 101001.0 -4.4-8.7
2017-Nov-12 06:00N 61°06' W 065°24'6 6.0 310 / 91000.8 -4.3-8.4
2017-Nov-12 05:00N 61°12' W 065°24'1212.3 290 / 151001.4 -4.2-10.1
2017-Nov-12 04:00N 61°24' W 065°30'7 6.7 310 / 111002.2 -3.9-9.5
2017-Nov-12 03:00N 61°30' W 065°36'1212.0 340 / 121003.3 -5.1-8.8
2017-Nov-12 02:00N 61°42' W 065°36'1212.0 350 / 151004.3 -5.4-7.3
2017-Nov-12 01:00N 61°54' W 065°36'1818.2 340 / 161005.4 -5.0-7.9
2017-Nov-12 00:00N 62°12' W 065°42'1313.2 320 / 211006.9 -5.3-9.5
2017-Nov-11 23:00N 62°24' W 065°54'1616.3 320 / 191008.3 -5.8-10.1
2017-Nov-11 22:00N 62°36' W 066°18'1616.3 310 / 211009.6 -6.6-12.2
2017-Nov-11 21:00N 62°48' W 066°42'1212.5 320 / 201011.1 -6.8-12.2
2017-Nov-11 20:00N 62°54' W 067°06'1616.2 320 / 181012.3 -7.0-12.6
2017-Nov-11 19:00N 63°06' W 067°30'1212.4 310 / 211012.9 -7.0-11.7
2017-Nov-11 18:00N 63°12' W 067°54'1414.5 350 / 121014.3 -6.9-11.7
2017-Nov-11 17:00N 63°24' W 068°12'2019.7 020 / 171014.8 -7.6-12.8
2017-Nov-11 16:00N 63°42' W 068°30'0 0.0 030 / 261015.7 -9.1-14.7
2017-Nov-11 15:00N 63°42' W 068°30'0 0.0 020 / 171016.5 -8.6-15.1
2017-Nov-11 14:00N 63°42' W 068°30'0 0.0 010 / 101017.3 -7.8-13.5
2017-Nov-11 13:00N 63°42' W 068°30'0 0.0 030 / 81017.9 -7.4-12.2
2017-Nov-11 12:00N 63°42' W 068°30'0 0.0 020 / 81018.3 -7.4-11.8
2017-Nov-11 11:00N 63°42' W 068°30'0 0.0 020 / 101018.1 -7.4-11.4
2017-Nov-11 10:00N 63°42' W 068°30'0 0.0 040 / 61018.3 -6.2-9.8
2017-Nov-11 08:00N 63°42' W 068°30'0 0.0 150 / 51018.4 -5.8-10.8
2017-Nov-11 07:00N 63°42' W 068°30'0 0.0 160 / 61018.0 -5.9-10.7
2017-Nov-11 06:00N 63°42' W 068°30'0 0.0 160 / 101017.6 -6.0-10.7
2017-Nov-11 05:00N 63°42' W 068°30'0 0.0 120 / 121017.5 -5.2-12.0
2017-Nov-11 04:00N 63°42' W 068°30'0 0.0 130 / 141017.6 -5.2-11.6
2017-Nov-11 03:00N 63°42' W 068°30'0 0.0 130 / 131017.9 -5.2-12.9
2017-Nov-11 02:00N 63°42' W 068°30'0 0.0 120 / 111018.3 -5.1-13.1
2017-Nov-11 01:00N 63°42' W 068°30'0 0.0 130 / 131018.5 -5.2-13.8
2017-Nov-11 00:00N 63°42' W 068°30'0 0.0 130 / 141018.7 -5.5-13.0
2017-Nov-10 23:00N 63°42' W 068°30'0 0.0 150 / 101018.6 -5.4-12.2
2017-Nov-10 22:00N 63°42' W 068°30'0 0.0 170 / 91018.1 -5.5-12.5
2017-Nov-10 20:00N 63°42' W 068°30'0 0.0 160 / 131016.9 -5.4-12.9
2017-Nov-10 19:00N 63°42' W 068°30'6 6.0 150 / 141015.8 -4.5-12.4
2017-Nov-10 18:00N 63°36' W 068°30'0 0.0 110 / 131016.0 -4.9-12.8
2017-Nov-10 17:00N 63°36' W 068°30'6 6.0 140 / 151014.6 -4.7-12.6
2017-Nov-10 16:00N 63°42' W 068°30'0 0.0 130 / 91015.0 -5.1-12.7
2017-Nov-10 15:00N 63°42' W 068°30'0 0.0 160 / 121014.6 -5.2-12.7
2017-Nov-10 14:00N 63°42' W 068°30'0 0.0 150 / 121014.4 -5.1-12.9
2017-Nov-10 13:00N 63°42' W 068°30'0 0.0 140 / 121014.2 -5.2-12.8
2017-Nov-10 12:00N 63°42' W 068°30'0 0.0 130 / 91014.0 -5.6-11.8
2017-Nov-10 11:00N 63°42' W 068°30'0 0.0 130 / 131013.7 -5.4-12.1
2017-Nov-10 10:00N 63°42' W 068°30'0 0.0 110 / 141013.2 -5.6-11.2
2017-Nov-10 09:00N 63°42' W 068°30'0 0.0 140 / 81012.9 -6.0-11.1
2017-Nov-10 08:00N 63°42' W 068°30'0 0.0 180 / 141012.1 -5.9-10.4
2017-Nov-10 07:00N 63°42' W 068°30'   170 / 111011.1 -5.5-10.4

Dump ship's entire track history